Time;durP1;ratioP1;P1;durP2;ratioP2;P2;SDS_P1;SDS_P2;PMS_P1;PMS_P2;Temp;Humidity;BMP_temperature;BMP_pressure;BME280_temperature;BME280_humidity;BME280_pressure;Samples;Min_cycle;Max_cycle;Signal;HPM_P1;HPM_P2
2023/03/06 00:02:59;;;;;;;10.90;6.10;;;5.30;99.90;;;;;;10322425;28;20941;-71
2023/03/06 00:08:06;;;;;;;7.73;5.70;;;5.30;99.90;;;;;;10315990;28;20217;-71
2023/03/06 00:13:10;;;;;;;8.13;6.07;;;5.30;99.90;;;;;;10314579;28;20279;-72
2023/03/06 00:18:11;;;;;;;10.27;6.30;;;5.30;99.90;;;;;;10313573;28;20230;-72
2023/03/06 00:23:12;;;;;;;10.10;6.33;;;5.30;99.90;;;;;;10315804;28;20589;-72
2023/03/06 00:28:14;;;;;;;10.10;5.93;;;5.30;99.90;;;;;;10317152;28;20225;-72
2023/03/06 00:33:15;;;;;;;7.03;5.63;;;5.30;99.90;;;;;;10314053;28;20230;-74
2023/03/06 00:38:15;;;;;;;10.07;6.50;;;5.30;99.90;;;;;;10316292;28;20248;-74
2023/03/06 00:43:16;;;;;;;10.83;6.50;;;5.30;99.90;;;;;;10316829;28;20239;-73
2023/03/06 00:48:16;;;;;;;9.20;6.20;;;5.30;99.90;;;;;;10334177;28;20224;-73
2023/03/06 00:53:17;;;;;;;10.00;6.27;;;5.30;99.90;;;;;;10327306;28;20755;-75
2023/03/06 00:58:17;;;;;;;8.60;6.23;;;5.30;99.90;;;;;;10324497;28;20217;-75
2023/03/06 01:03:18;;;;;;;9.70;7.00;;;5.30;99.90;;;;;;10333013;28;20226;-76
2023/03/06 01:08:19;;;;;;;8.47;6.23;;;5.30;99.90;;;;;;10329986;28;20277;-74
2023/03/06 01:13:22;;;;;;;9.10;6.23;;;5.30;99.90;;;;;;10328151;28;20254;-71
2023/03/06 01:18:23;;;;;;;8.97;6.20;;;5.30;99.90;;;;;;10323751;28;20298;-70
2023/03/06 01:23:23;;;;;;;8.83;6.67;;;5.30;99.90;;;;;;10320834;28;20300;-72
2023/03/06 01:28:24;;;;;;;9.90;6.60;;;5.20;99.90;;;;;;10328010;28;20229;-72
2023/03/06 01:33:24;;;;;;;10.07;6.73;;;5.20;99.90;;;;;;10321243;28;20236;-73
2023/03/06 01:38:25;;;;;;;9.17;6.33;;;5.30;99.90;;;;;;10317337;28;20226;-74
2023/03/06 01:43:30;;;;;;;10.13;6.90;;;5.20;99.90;;;;;;10315331;28;20844;-73
2023/03/06 01:48:33;;;;;;;9.97;6.67;;;5.20;99.90;;;;;;10322681;28;20288;-73
2023/03/06 01:53:38;;;;;;;10.43;6.33;;;5.20;99.90;;;;;;10321615;28;20229;-74
2023/03/06 01:58:42;;;;;;;10.30;7.03;;;5.20;99.90;;;;;;10328373;28;20323;-73
2023/03/06 02:03:44;;;;;;;7.87;6.30;;;5.10;99.90;;;;;;10329735;28;20221;-73
2023/03/06 02:08:48;;;;;;;11.03;6.93;;;5.20;99.90;;;;;;10323815;28;20259;-74
2023/03/06 02:13:52;;;;;;;10.60;7.37;;;5.10;99.90;;;;;;10311054;28;20223;-74
2023/03/06 02:18:54;;;;;;;10.53;6.97;;;5.10;99.90;;;;;;10313968;28;20258;-74
2023/03/06 02:24:18;;;;;;;12.67;7.23;;;5.20;99.90;;;;;;10320436;28;20961;-72
2023/03/06 02:29:23;;;;;;;12.73;7.60;;;5.20;99.90;;;;;;10323116;28;20907;-73
2023/03/06 02:34:24;;;;;;;11.23;7.47;;;5.20;99.90;;;;;;10320309;28;20226;-73
2023/03/06 02:39:27;;;;;;;11.60;7.73;;;5.20;99.90;;;;;;10318185;28;20231;-73
2023/03/06 02:44:28;;;;;;;11.03;7.90;;;5.10;99.90;;;;;;10321270;28;20214;-71
2023/03/06 02:49:28;;;;;;;10.13;7.73;;;5.10;99.90;;;;;;10335214;28;20232;-71
2023/03/06 02:54:32;;;;;;;10.30;7.20;;;5.00;99.90;;;;;;10320218;28;20590;-72
2023/03/06 02:59:35;;;;;;;10.63;7.90;;;5.00;99.90;;;;;;10327693;28;20232;-75
2023/03/06 03:04:36;;;;;;;12.50;8.53;;;5.00;99.90;;;;;;10326242;28;20219;-74
2023/03/06 03:09:37;;;;;;;12.77;8.67;;;5.00;99.90;;;;;;10311595;28;20419;-74
2023/03/06 03:14:37;;;;;;;11.07;8.10;;;4.90;99.90;;;;;;10315237;28;20685;-77
2023/03/06 03:19:38;;;;;;;10.00;8.17;;;4.90;99.90;;;;;;10319728;28;20225;-74
2023/03/06 03:24:42;;;;;;;10.10;7.37;;;4.90;99.90;;;;;;10321342;28;20253;-70
2023/03/06 03:29:42;;;;;;;9.40;7.03;;;4.90;99.90;;;;;;10318444;28;20226;-71
2023/03/06 03:34:43;;;;;;;9.40;6.47;;;4.80;99.90;;;;;;10314125;28;20793;-75
2023/03/06 03:39:43;;;;;;;11.77;7.13;;;4.80;99.90;;;;;;10317850;28;20309;-75
2023/03/06 03:44:44;;;;;;;11.67;7.50;;;4.90;99.90;;;;;;10305526;28;20220;-76
2023/03/06 03:49:44;;;;;;;11.63;7.30;;;4.90;99.90;;;;;;10318145;28;20232;-73
2023/03/06 03:54:45;;;;;;;10.43;7.63;;;4.90;99.90;;;;;;10317665;28;20304;-73
2023/03/06 03:59:45;;;;;;;8.63;6.90;;;4.90;99.90;;;;;;10317897;28;20232;-72
2023/03/06 04:04:47;;;;;;;10.33;7.83;;;5.00;99.90;;;;;;10321298;28;20296;-71
2023/03/06 04:09:47;;;;;;;11.00;7.83;;;4.90;99.90;;;;;;10321288;28;20229;-73
2023/03/06 04:14:48;;;;;;;10.40;7.63;;;5.00;99.90;;;;;;10314013;28;20217;-71
2023/03/06 04:19:49;;;;;;;11.50;8.03;;;5.00;99.90;;;;;;10322433;28;20226;-72
2023/03/06 04:24:49;;;;;;;11.30;7.97;;;5.00;99.90;;;;;;10331358;28;20244;-73
2023/03/06 04:29:50;;;;;;;12.00;7.93;;;4.90;99.90;;;;;;10330643;28;20224;-77
2023/03/06 04:34:51;;;;;;;12.70;8.17;;;4.90;99.90;;;;;;10323271;28;20220;-75
2023/03/06 04:39:51;;;;;;;12.03;8.77;;;4.90;99.90;;;;;;10324401;28;20317;-72
2023/03/06 04:44:52;;;;;;;10.63;8.27;;;4.80;99.90;;;;;;10319354;28;20225;-73
2023/03/06 04:49:52;;;;;;;11.30;8.40;;;4.80;99.90;;;;;;10319962;28;20228;-74
2023/03/06 04:54:53;;;;;;;13.93;8.50;;;4.80;99.90;;;;;;10342824;28;20743;-72
2023/03/06 04:59:53;;;;;;;13.83;8.07;;;4.80;99.90;;;;;;10333993;28;20237;-72
2023/03/06 05:04:54;;;;;;;12.63;8.33;;;4.80;99.90;;;;;;10322853;28;20241;-73
2023/03/06 05:09:55;;;;;;;12.67;8.23;;;4.80;99.90;;;;;;10329014;28;20235;-74
2023/03/06 05:14:56;;;;;;;11.20;8.43;;;4.80;99.90;;;;;;10317424;28;20803;-75
2023/03/06 05:19:57;;;;;;;10.87;7.97;;;4.70;99.90;;;;;;10332178;28;20688;-72
2023/03/06 05:24:58;;;;;;;11.40;8.53;;;4.70;99.90;;;;;;10326924;28;20225;-72
2023/03/06 05:29:59;;;;;;;12.23;8.00;;;4.60;99.90;;;;;;10326814;28;20230;-73
2023/03/06 05:34:59;;;;;;;11.00;8.47;;;4.60;99.90;;;;;;10319194;28;20222;-72
2023/03/06 05:40:02;;;;;;;11.43;8.50;;;4.60;99.90;;;;;;10325795;28;20229;-71
2023/03/06 05:45:04;;;;;;;13.27;8.93;;;4.60;99.90;;;;;;10320371;28;20237;-70
2023/03/06 05:50:07;;;;;;;17.43;11.30;;;4.60;99.90;;;;;;10329125;28;20669;-69
2023/03/06 05:55:10;;;;;;;22.27;13.63;;;4.50;99.90;;;;;;10316017;28;20303;-73
2023/03/06 06:00:12;;;;;;;30.50;15.47;;;4.50;99.90;;;;;;10320854;28;20203;-73
2023/03/06 06:05:13;;;;;;;25.77;14.80;;;4.50;99.90;;;;;;10329328;28;20190;-76
2023/03/06 06:10:14;;;;;;;20.53;11.90;;;4.60;99.90;;;;;;10321659;28;20729;-75
2023/03/06 06:15:15;;;;;;;15.47;8.70;;;4.50;99.90;;;;;;10323543;28;20285;-75
2023/03/06 06:20:16;;;;;;;10.40;8.03;;;4.50;99.90;;;;;;10325491;28;20213;-72
2023/03/06 06:25:16;;;;;;;12.30;8.67;;;4.50;99.90;;;;;;10316284;28;20551;-73
2023/03/06 06:30:17;;;;;;;11.20;8.00;;;4.60;99.90;;;;;;10322030;28;20256;-73
2023/03/06 06:35:18;;;;;;;12.93;8.73;;;4.60;99.90;;;;;;10321737;28;20201;-78
2023/03/06 06:40:19;;;;;;;14.67;8.93;;;4.60;99.90;;;;;;10312222;28;20248;-72
2023/03/06 06:45:20;;;;;;;14.57;9.57;;;4.70;99.90;;;;;;10319226;28;20186;-71
2023/03/06 06:50:20;;;;;;;17.50;9.50;;;4.70;99.90;;;;;;10324805;28;20201;-74
2023/03/06 06:55:21;;;;;;;15.80;10.50;;;4.70;99.90;;;;;;10323756;28;20191;-73
2023/03/06 07:00:23;;;;;;;13.40;8.93;;;4.80;99.90;;;;;;10326480;28;20224;-74
2023/03/06 07:05:23;;;;;;;12.67;8.83;;;4.70;99.90;;;;;;10324861;28;20704;-73
2023/03/06 07:10:24;;;;;;;12.13;8.93;;;4.70;99.90;;;;;;10318273;28;20239;-73
2023/03/06 07:15:25;;;;;;;13.50;9.53;;;4.60;99.90;;;;;;10317546;28;20218;-73
2023/03/06 07:20:26;;;;;;;13.20;9.00;;;4.70;99.90;;;;;;10317698;28;20229;-73
2023/03/06 07:25:27;;;;;;;15.40;9.17;;;4.80;99.90;;;;;;10312140;28;20218;-73
2023/03/06 07:30:28;;;;;;;14.77;9.30;;;5.00;99.90;;;;;;10326852;28;20241;-74
2023/03/06 07:35:29;;;;;;;14.40;9.33;;;5.70;99.90;;;;;;10323193;28;20635;-75
2023/03/06 07:40:30;;;;;;;12.60;9.17;;;6.50;99.90;;;;;;10323832;28;20238;-75
2023/03/06 07:45:31;;;;;;;11.57;8.43;;;6.80;99.90;;;;;;10323158;28;20232;-75
2023/03/06 07:50:32;;;;;;;10.73;8.53;;;6.60;99.90;;;;;;10315881;28;20236;-75
2023/03/06 07:55:32;;;;;;;10.63;8.43;;;6.40;99.90;;;;;;10313718;28;20233;-73
2023/03/06 08:00:33;;;;;;;10.90;8.63;;;6.30;99.90;;;;;;10315253;28;20229;-73
2023/03/06 08:05:33;;;;;;;13.10;9.03;;;6.10;99.90;;;;;;10321982;28;20588;-73
2023/03/06 08:10:34;;;;;;;11.10;8.83;;;6.00;99.90;;;;;;10322668;28;20628;-74
2023/03/06 08:15:34;;;;;;;13.03;9.37;;;6.00;99.90;;;;;;10324451;28;20587;-74
2023/03/06 08:20:35;;;;;;;13.83;10.07;;;6.00;99.90;;;;;;10321358;28;20284;-74
2023/03/06 08:25:36;;;;;;;11.00;9.33;;;6.10;99.90;;;;;;10323363;28;20237;-74
2023/03/06 08:30:36;;;;;;;11.43;8.47;;;6.20;99.90;;;;;;10321487;28;20688;-73
2023/03/06 08:35:37;;;;;;;13.07;10.27;;;6.30;99.90;;;;;;10322169;28;20249;-74
2023/03/06 08:40:37;;;;;;;11.07;8.70;;;6.40;99.90;;;;;;10319561;28;20244;-72
2023/03/06 08:45:39;;;;;;;11.13;8.97;;;6.50;99.90;;;;;;10320263;28;20602;-73
2023/03/06 08:50:40;;;;;;;12.93;9.30;;;6.60;99.90;;;;;;10323344;28;20657;-75
2023/03/06 08:55:40;;;;;;;13.80;9.23;;;6.60;99.90;;;;;;10323076;28;20229;-73
2023/03/06 09:00:41;;;;;;;12.63;9.33;;;6.60;99.90;;;;;;10324936;28;20272;-74
2023/03/06 09:05:42;;;;;;;12.67;8.60;;;7.10;99.90;;;;;;10326088;28;20992;-74
2023/03/06 09:10:47;;;;;;;12.03;8.70;;;7.60;99.90;;;;;;10326796;28;20225;-74
2023/03/06 09:15:47;;;;;;;14.10;9.13;;;7.70;99.90;;;;;;10329768;28;20230;-74
2023/03/06 09:20:48;;;;;;;11.07;8.83;;;7.70;99.90;;;;;;10328633;28;20249;-74
2023/03/06 09:25:56;;;;;;;11.47;9.37;;;7.60;99.90;;;;;;10328577;28;20233;-72
2023/03/06 09:30:57;;;;;;;12.90;9.70;;;7.70;99.90;;;;;;10322341;28;20224;-72
2023/03/06 09:35:57;;;;;;;12.77;8.83;;;8.00;99.90;;;;;;10328997;28;20225;-72
2023/03/06 09:41:14;;;;;;;13.67;8.90;;;8.50;99.90;;;;;;10329760;28;20232;-72
2023/03/06 09:46:37;;;;;;;12.80;9.73;;;8.80;99.90;;;;;;10327987;28;20232;-71
2023/03/06 09:51:50;;;;;;;15.83;9.70;;;8.40;99.90;;;;;;10326684;28;20256;-70
2023/03/06 09:56:51;;;;;;;13.20;9.10;;;8.10;99.90;;;;;;10359656;28;20222;-72
2023/03/06 10:02:23;;;;;;;13.23;9.97;;;8.40;99.90;;;;;;10327907;28;20724;-72
2023/03/06 10:07:49;;;;;;;12.00;9.23;;;9.00;99.90;;;;;;10327687;28;20225;-73
2023/03/06 10:13:25;;;;;;;11.57;9.67;;;8.90;99.90;;;;;;10327104;28;20756;-71
2023/03/06 10:18:25;;;;;;;11.63;8.97;;;8.60;99.90;;;;;;10315125;28;20572;-71
2023/03/06 10:23:40;;;;;;;13.83;9.67;;;8.80;99.90;;;;;;10325765;28;20220;-73
2023/03/06 10:29:05;;;;;;;17.00;9.10;;;9.20;99.90;;;;;;10327738;28;20313;-71
2023/03/06 10:34:22;;;;;;;11.20;9.17;;;10.50;99.90;;;;;;10315757;28;20226;-72
2023/03/06 10:39:22;;;;;;;11.17;9.47;;;11.00;99.90;;;;;;10325319;28;20221;-71
2023/03/06 10:44:23;;;;;;;11.93;8.73;;;10.50;99.90;;;;;;10326434;28;20230;-73
2023/03/06 10:49:26;;;;;;;11.00;9.47;;;9.60;99.90;;;;;;10319795;28;20226;-72
2023/03/06 10:54:29;;;;;;;12.53;9.90;;;9.10;99.90;;;;;;10325135;28;20364;-71
2023/03/06 10:59:30;;;;;;;10.80;9.00;;;8.80;99.90;;;;;;10326238;28;20229;-71
2023/03/06 11:04:33;;;;;;;12.33;9.23;;;8.80;99.90;;;;;;10326017;28;20811;-74
2023/03/06 11:09:35;;;;;;;13.33;9.50;;;8.60;99.90;;;;;;10312780;28;20222;-75
2023/03/06 11:14:36;;;;;;;13.40;9.30;;;9.00;99.90;;;;;;10328392;28;20230;-72
2023/03/06 11:19:36;;;;;;;12.47;9.67;;;10.10;99.90;;;;;;10308896;28;20230;-72
2023/03/06 11:24:43;;;;;;;13.67;9.70;;;10.70;98.40;;;;;;10327100;28;20292;-73
2023/03/06 11:29:48;;;;;;;10.23;9.13;;;11.40;96.80;;;;;;10301562;28;20574;-74
2023/03/06 11:35:00;;;;;;;13.40;9.27;;;12.00;94.40;;;;;;10302971;28;20230;-73
2023/03/06 11:40:10;;;;;;;10.10;9.07;;;12.40;92.40;;;;;;10316842;28;20233;-74
2023/03/06 11:45:28;;;;;;;11.03;9.67;;;12.20;91.30;;;;;;10305883;28;20218;-72
2023/03/06 11:50:46;;;;;;;10.70;8.90;;;12.30;90.90;;;;;;10311152;28;20654;-72
2023/03/06 11:55:59;;;;;;;10.67;8.93;;;12.40;86.70;;;;;;10307400;28;20217;-75
2023/03/06 12:01:08;;;;;;;12.00;9.30;;;12.10;88.00;;;;;;10302096;28;20254;-76
2023/03/06 12:06:39;;;;;;;11.30;9.17;;;12.40;85.80;;;;;;10306230;28;20230;-74
2023/03/06 12:12:15;;;;;;;14.87;9.93;;;12.10;85.20;;;;;;10302794;28;20230;-74
2023/03/06 12:17:40;;;;;;;12.60;10.60;;;11.70;87.10;;;;;;10309063;28;20593;-72
2023/03/06 12:23:01;;;;;;;11.87;9.43;;;11.20;87.70;;;;;;10309135;28;20316;-74
2023/03/06 12:28:28;;;;;;;11.33;9.47;;;10.80;89.60;;;;;;10303718;28;20230;-73
2023/03/06 12:33:42;;;;;;;11.70;9.50;;;10.50;90.40;;;;;;10303437;28;20218;-72
2023/03/06 12:38:58;;;;;;;14.17;9.57;;;10.40;90.40;;;;;;10308680;28;20800;-73
2023/03/06 12:44:13;;;;;;;17.60;10.47;;;10.60;89.20;;;;;;10310369;28;20237;-72
2023/03/06 12:49:28;;;;;;;13.37;9.23;;;11.00;88.50;;;;;;10316968;28;20232;-73
2023/03/06 12:54:30;;;;;;;15.53;10.10;;;11.00;87.30;;;;;;10330617;28;20234;-73
2023/03/06 12:59:43;;;;;;;11.30;9.50;;;10.70;87.00;;;;;;10320980;28;20230;-73
2023/03/06 13:04:50;;;;;;;10.93;9.00;;;10.70;86.80;;;;;;10318910;28;20214;-73
2023/03/06 13:10:07;;;;;;;11.73;9.03;;;10.70;87.90;;;;;;10315843;28;20272;-72
2023/03/06 13:15:40;;;;;;;18.67;9.17;;;10.60;85.80;;;;;;10337710;28;20217;-74
2023/03/06 13:20:44;;;;;;;10.47;8.50;;;10.50;85.80;;;;;;10318251;28;20245;-73
2023/03/06 13:25:48;;;;;;;11.00;8.30;;;10.20;84.80;;;;;;10317845;28;20218;-74
2023/03/06 13:30:49;;;;;;;10.37;8.83;;;10.10;84.30;;;;;;10307001;28;20218;-73
2023/03/06 13:35:57;;;;;;;11.20;9.30;;;10.00;86.20;;;;;;10314440;28;20226;-74
2023/03/06 13:41:25;;;;;;;16.40;9.43;;;9.80;87.30;;;;;;10320085;28;20236;-74
2023/03/06 13:46:34;;;;;;;13.27;9.87;;;9.70;88.30;;;;;;10326640;28;20458;-73
2023/03/06 13:51:51;;;;;;;10.60;8.50;;;9.70;91.00;;;;;;10306088;28;20774;-72
2023/03/06 13:57:11;;;;;;;12.83;9.10;;;9.70;90.50;;;;;;10307328;28;20234;-73
2023/03/06 14:02:37;;;;;;;20.67;9.57;;;9.70;90.70;;;;;;10310196;28;20323;-73
2023/03/06 14:08:01;;;;;;;11.83;9.60;;;9.60;92.30;;;;;;10312497;28;20303;-73
2023/03/06 14:13:06;;;;;;;12.33;8.37;;;9.40;92.80;;;;;;10323047;28;20245;-73
2023/03/06 14:18:22;;;;;;;14.00;8.57;;;9.20;93.80;;;;;;10310511;28;20245;-73
2023/03/06 14:23:29;;;;;;;13.77;8.60;;;9.00;94.30;;;;;;10322333;28;20245;-72
2023/03/06 14:28:31;;;;;;;16.43;9.57;;;8.80;94.60;;;;;;10316760;28;20225;-72
2023/03/06 14:33:36;;;;;;;12.73;8.37;;;8.60;95.50;;;;;;10306700;28;20252;-73
2023/03/06 14:38:44;;;;;;;11.27;8.80;;;8.30;97.40;;;;;;10311485;28;20232;-73
2023/03/06 14:43:44;;;;;;;10.60;8.70;;;7.90;99.90;;;;;;10304024;28;20222;-73
2023/03/06 14:48:47;;;;;;;14.50;9.10;;;7.60;99.90;;;;;;10310868;28;20233;-73
2023/03/06 14:53:49;;;;;;;11.43;9.23;;;7.50;99.90;;;;;;10302740;28;20251;-73
2023/03/06 14:58:58;;;;;;;17.77;10.50;;;7.30;99.90;;;;;;10304887;28;20697;-72
2023/03/06 15:04:00;;;;;;;13.33;9.93;;;7.30;99.90;;;;;;10321131;28;20229;-74
2023/03/06 15:09:25;;;;;;;12.67;9.60;;;7.30;99.90;;;;;;10328722;28;20228;-75
2023/03/06 15:14:37;;;;;;;12.63;9.70;;;7.30;99.90;;;;;;10304295;28;20275;-74
2023/03/06 15:19:41;;;;;;;13.27;9.60;;;7.30;99.90;;;;;;10314355;28;20226;-74
2023/03/06 15:24:42;;;;;;;12.50;9.57;;;7.30;99.90;;;;;;10319445;28;20213;-75
2023/03/06 15:29:42;;;;;;;11.70;8.97;;;7.30;99.90;;;;;;10309766;28;20229;-73
2023/03/06 15:35:07;;;;;;;14.53;9.00;;;7.20;99.90;;;;;;10318236;28;20226;-75
2023/03/06 15:40:17;;;;;;;12.07;9.23;;;7.20;99.90;;;;;;10323726;28;20230;-75
2023/03/06 15:45:20;;;;;;;11.93;8.80;;;7.20;99.90;;;;;;10306736;28;20236;-74
2023/03/06 15:50:24;;;;;;;10.87;8.10;;;7.20;99.90;;;;;;10312253;28;20229;-75
2023/03/06 15:55:25;;;;;;;12.67;7.73;;;7.20;99.90;;;;;;10307141;28;20218;-76
2023/03/06 16:00:37;;;;;;;9.20;7.30;;;7.20;99.90;;;;;;10311808;28;20728;-74
2023/03/06 16:05:38;;;;;;;9.17;7.20;;;7.20;99.90;;;;;;10308935;28;20213;-75
2023/03/06 16:10:41;;;;;;;10.83;7.63;;;7.00;99.90;;;;;;10302297;28;21016;-76
2023/03/06 16:15:48;;;;;;;8.63;6.90;;;6.90;99.90;;;;;;10311773;28;20224;-76
2023/03/06 16:20:48;;;;;;;10.57;7.80;;;6.80;99.90;;;;;;10309816;28;20237;-75
2023/03/06 16:25:49;;;;;;;10.73;7.80;;;6.70;99.90;;;;;;10323740;28;20248;-75
2023/03/06 16:30:49;;;;;;;9.60;7.23;;;6.50;99.90;;;;;;10309413;28;20225;-74
2023/03/06 16:35:50;;;;;;;10.13;7.67;;;6.40;99.90;;;;;;10323355;28;20680;-75
2023/03/06 16:40:51;;;;;;;9.40;7.27;;;6.40;99.90;;;;;;10316804;28;20234;-75
2023/03/06 16:45:51;;;;;;;7.93;6.37;;;6.30;99.90;;;;;;10308713;28;20222;-74
2023/03/06 16:50:52;;;;;;;11.73;8.27;;;6.30;99.90;;;;;;10316378;28;20233;-74
2023/03/06 16:55:52;;;;;;;11.93;6.60;;;6.30;99.90;;;;;;10328180;28;20301;-76
2023/03/06 17:00:53;;;;;;;11.17;7.53;;;6.30;99.90;;;;;;10319327;28;20216;-75
2023/03/06 17:05:57;;;;;;;11.03;8.07;;;6.20;99.90;;;;;;10321814;28;20221;-74
2023/03/06 17:10:57;;;;;;;11.77;8.30;;;6.20;99.90;;;;;;10316776;28;20722;-76
2023/03/06 17:16:00;;;;;;;13.07;8.67;;;6.10;99.90;;;;;;10331907;28;20333;-75
2023/03/06 17:21:01;;;;;;;14.17;9.63;;;6.10;99.90;;;;;;10315990;28;20237;-75
2023/03/06 17:26:10;;;;;;;13.37;9.80;;;6.00;99.90;;;;;;10312982;28;20225;-74
2023/03/06 17:31:20;;;;;;;15.60;11.47;;;5.90;99.90;;;;;;10311928;28;20758;-75
2023/03/06 17:36:21;;;;;;;14.27;10.43;;;5.90;99.90;;;;;;10321424;28;20349;-74
2023/03/06 17:41:25;;;;;;;17.73;12.23;;;5.90;99.90;;;;;;10318477;28;20233;-75
2023/03/06 17:46:25;;;;;;;17.53;11.57;;;5.80;99.90;;;;;;10306489;28;20226;-75
2023/03/06 17:51:26;;;;;;;16.30;11.77;;;5.80;99.90;;;;;;10315619;28;20865;-75
2023/03/06 17:56:26;;;;;;;15.17;11.53;;;5.80;99.90;;;;;;10314137;28;20678;-75
2023/03/06 18:01:29;;;;;;;18.70;11.83;;;5.70;99.90;;;;;;10311300;28;20234;-77
2023/03/06 18:06:38;;;;;;;17.40;11.30;;;5.70;99.90;;;;;;10314663;28;20254;-75
2023/03/06 18:11:40;;;;;;;15.57;11.80;;;5.60;99.90;;;;;;10319602;28;20232;-75
2023/03/06 18:16:40;;;;;;;17.40;11.57;;;5.50;99.90;;;;;;10311881;28;20709;-74
2023/03/06 18:21:41;;;;;;;13.37;10.63;;;5.40;99.90;;;;;;10320929;28;20244;-74
2023/03/06 18:26:42;;;;;;;15.47;11.10;;;5.20;99.90;;;;;;10324353;28;20218;-74
2023/03/06 18:31:45;;;;;;;14.77;11.03;;;5.10;99.90;;;;;;10312629;28;20237;-74
2023/03/06 18:36:47;;;;;;;16.60;11.23;;;5.10;99.90;;;;;;10304038;28;20229;-74
2023/03/06 18:41:47;;;;;;;14.07;10.53;;;5.00;99.90;;;;;;10312626;28;20237;-75
2023/03/06 18:46:48;;;;;;;14.80;11.57;;;5.00;99.90;;;;;;10318917;28;20256;-75
2023/03/06 18:51:49;;;;;;;14.77;11.07;;;5.00;99.90;;;;;;10310768;28;20225;-74
2023/03/06 18:56:50;;;;;;;17.67;10.47;;;5.00;99.90;;;;;;10324160;28;20290;-75
2023/03/06 19:01:56;;;;;;;15.17;10.50;;;5.00;99.90;;;;;;10310645;28;20225;-76
2023/03/06 19:06:56;;;;;;;15.83;11.23;;;5.00;99.90;;;;;;10310095;28;20225;-75
2023/03/06 19:11:58;;;;;;;15.50;11.10;;;5.00;99.90;;;;;;10313548;28;20716;-75
2023/03/06 19:16:59;;;;;;;15.57;11.50;;;5.00;99.90;;;;;;10324964;28;20213;-74
2023/03/06 19:22:00;;;;;;;16.33;10.97;;;5.00;99.90;;;;;;10328730;28;20224;-75
2023/03/06 19:27:00;;;;;;;15.30;11.67;;;5.00;99.90;;;;;;10317003;28;20226;-75
2023/03/06 19:32:01;;;;;;;15.27;11.50;;;5.00;99.90;;;;;;10302391;28;20215;-74
2023/03/06 19:37:01;;;;;;;26.50;12.77;;;5.00;99.90;;;;;;10310268;28;20329;-74
2023/03/06 19:42:03;;;;;;;17.43;13.37;;;5.10;99.90;;;;;;10325520;28;20728;-74
2023/03/06 19:47:04;;;;;;;18.90;14.03;;;5.10;99.90;;;;;;10325717;28;20232;-74
2023/03/06 19:52:07;;;;;;;18.60;13.67;;;5.00;99.90;;;;;;10322475;28;20572;-75
2023/03/06 19:57:07;;;;;;;22.23;14.50;;;5.00;99.90;;;;;;10324223;28;20268;-74
2023/03/06 20:02:12;;;;;;;18.23;13.33;;;5.00;99.90;;;;;;10325420;28;20563;-75
2023/03/06 20:07:12;;;;;;;21.30;13.83;;;4.90;99.90;;;;;;10325625;28;20209;-74
2023/03/06 20:12:14;;;;;;;19.13;13.53;;;4.90;99.90;;;;;;10320904;28;20226;-74
2023/03/06 20:17:14;;;;;;;18.03;13.30;;;4.80;99.90;;;;;;10312996;28;20654;-74
2023/03/06 20:22:15;;;;;;;19.33;14.37;;;4.80;99.90;;;;;;10308814;28;20218;-74
2023/03/06 20:27:15;;;;;;;19.33;14.10;;;4.80;99.90;;;;;;10320143;28;20695;-74
2023/03/06 20:32:16;;;;;;;18.67;13.30;;;4.70;99.90;;;;;;10312922;28;20289;-73
2023/03/06 20:37:17;;;;;;;20.83;13.80;;;4.60;99.90;;;;;;10312441;28;20225;-75
2023/03/06 20:42:17;;;;;;;21.63;13.73;;;4.50;99.90;;;;;;10313369;28;20229;-74
2023/03/06 20:47:18;;;;;;;19.30;14.00;;;4.30;99.90;;;;;;10309373;28;20224;-74
2023/03/06 20:52:18;;;;;;;19.53;14.23;;;4.30;99.90;;;;;;10307913;28;20237;-74
2023/03/06 20:57:19;;;;;;;20.23;14.17;;;4.30;99.90;;;;;;10303546;28;20657;-74
2023/03/06 21:02:19;;;;;;;21.40;14.67;;;4.30;99.90;;;;;;10333027;28;20231;-74
2023/03/06 21:07:20;;;;;;;20.27;14.63;;;4.40;99.90;;;;;;10330365;28;20232;-74
2023/03/06 21:12:21;;;;;;;20.47;15.10;;;4.40;99.90;;;;;;10322933;28;20301;-75
2023/03/06 21:17:23;;;;;;;21.60;15.37;;;4.40;99.90;;;;;;10319890;28;20232;-75
2023/03/06 21:22:24;;;;;;;21.63;15.63;;;4.40;99.90;;;;;;10319308;28;20257;-74
2023/03/06 21:27:24;;;;;;;21.60;14.50;;;4.30;99.90;;;;;;10316887;28;20222;-75
2023/03/06 21:32:25;;;;;;;22.53;14.63;;;4.30;99.90;;;;;;10312771;28;20222;-74
2023/03/06 21:37:29;;;;;;;23.80;15.90;;;4.20;99.90;;;;;;10309864;28;20229;-74
2023/03/06 21:42:29;;;;;;;20.37;14.47;;;4.10;99.90;;;;;;10319795;28;20257;-75
2023/03/06 21:47:36;;;;;;;21.80;14.57;;;4.10;99.90;;;;;;10318763;28;20226;-75
2023/03/06 21:52:37;;;;;;;22.97;15.30;;;4.10;99.90;;;;;;10307972;28;20226;-74
2023/03/06 21:57:37;;;;;;;23.03;15.47;;;4.00;99.90;;;;;;10314511;28;20749;-74
2023/03/06 22:02:38;;;;;;;22.50;15.40;;;4.00;99.90;;;;;;10313321;28;20257;-74
2023/03/06 22:07:38;;;;;;;21.33;14.80;;;3.90;99.90;;;;;;10321263;28;20218;-73
2023/03/06 22:12:40;;;;;;;21.00;15.10;;;3.90;99.90;;;;;;10312499;28;20246;-73
2023/03/06 22:17:40;;;;;;;25.73;16.13;;;3.90;99.90;;;;;;10312635;28;20283;-74
2023/03/06 22:22:42;;;;;;;23.30;15.70;;;3.90;99.90;;;;;;10306394;28;20321;-74
2023/03/06 22:27:43;;;;;;;23.87;16.63;;;3.90;99.90;;;;;;10318844;28;20218;-74
2023/03/06 22:32:43;;;;;;;25.10;16.97;;;3.90;99.90;;;;;;10314909;28;20222;-74
2023/03/06 22:37:44;;;;;;;25.07;16.80;;;4.00;99.90;;;;;;10304815;28;20230;-75
2023/03/06 22:42:44;;;;;;;25.67;16.93;;;4.10;99.90;;;;;;10312284;28;20230;-75
2023/03/06 22:47:45;;;;;;;25.23;17.23;;;4.10;99.90;;;;;;10311707;28;20238;-74
2023/03/06 22:52:45;;;;;;;25.63;17.47;;;4.10;99.90;;;;;;10323052;28;20226;-74
2023/03/06 22:57:49;;;;;;;23.17;17.00;;;4.20;99.90;;;;;;10329227;28;20213;-75
2023/03/06 23:02:52;;;;;;;23.97;16.60;;;4.30;99.90;;;;;;10328842;28;20307;-74
2023/03/06 23:07:53;;;;;;;23.73;17.07;;;4.40;99.90;;;;;;10329532;28;20236;-76
2023/03/06 23:12:54;;;;;;;23.77;18.10;;;4.40;99.90;;;;;;10327410;28;20206;-74
2023/03/06 23:17:54;;;;;;;23.40;16.97;;;4.40;99.90;;;;;;10326369;28;20213;-75
2023/03/06 23:22:55;;;;;;;26.97;18.37;;;4.50;99.90;;;;;;10317109;28;20297;-77
2023/03/06 23:27:55;;;;;;;25.87;18.20;;;4.50;99.90;;;;;;10307990;28;20642;-74
2023/03/06 23:32:56;;;;;;;26.23;17.43;;;4.50;99.90;;;;;;10303504;28;20229;-74
2023/03/06 23:37:56;;;;;;;27.43;19.70;;;4.60;99.90;;;;;;10309388;28;20228;-75
2023/03/06 23:42:57;;;;;;;29.70;20.40;;;4.60;99.90;;;;;;10304269;28;20263;-74
2023/03/06 23:47:57;;;;;;;25.23;18.93;;;4.60;99.90;;;;;;10309494;28;20759;-77
2023/03/06 23:52:58;;;;;;;28.07;19.53;;;4.60;99.90;;;;;;10318495;28;20288;-75
2023/03/06 23:57:58;;;;;;;29.20;19.97;;;4.60;99.90;;;;;;10325432;28;20776;-76
